Time;durP1;ratioP1;P1;durP2;ratioP2;P2;SDS_P1;SDS_P2;PMS_P1;PMS_P2;Temp;Humidity;BMP_temperature;BMP_pressure;BME280_temperature;BME280_humidity;BME280_pressure;Samples;Min_cycle;Max_cycle;Signal;HPM_P1;HPM_P2
2023/10/16 00:02:22;;;;;;;;;;;;;;;-144.99;100.00;52533.69;5115239;27;20026;-73
2023/10/16 00:04:49;;;;;;;;;;;;;;;-144.99;100.00;52566.31;5099082;28;20614;-73
2023/10/16 00:07:20;;;;;;;;;;;;;;;-144.99;100.00;52550.00;5095872;28;19928;-74
2023/10/16 00:09:49;;;;;;;;;;;;;;;-144.99;100.00;52588.75;5120458;27;19942;-76
2023/10/16 00:12:19;;;;;;;;;;;;;;;-144.99;100.00;52566.31;5112333;27;20105;-74
2023/10/16 00:14:47;;;;;;;;;;;;;;;-144.99;100.00;52525.56;5098597;27;19935;-73
2023/10/16 00:17:14;;;;;;;;;;;;;;;-144.99;100.00;52515.34;5103993;27;20305;-72
2023/10/16 00:19:44;;;;;;;;;;;;;;;-144.99;100.00;52503.13;4743165;27;10000329;-73
2023/10/16 00:22:16;;;;;;;;;;;;;;;-144.99;100.00;52582.63;5101193;27;19934;-74
2023/10/16 00:24:45;;;;;;;;;;;;;;;-144.99;100.00;52578.53;5098949;27;19934;-74
2023/10/16 00:27:14;;;;;;;;;;;;;;;-144.99;100.00;52554.09;5101915;27;20022;-75
2023/10/16 00:29:41;;;;;;;;;;;;;;;-144.99;100.00;52513.31;5114374;27;20588;-74
2023/10/16 00:32:11;;;;;;;;;;;;;;;-144.99;100.00;52537.78;5105834;27;19949;-72
2023/10/16 00:34:37;;;;;;;;;;;;;;;-144.99;100.00;52533.69;5107781;27;19957;-73
2023/10/16 00:37:04;;;;;;;;;;;;;;;-144.99;100.00;52537.78;5116535;27;19954;-75
2023/10/16 00:39:31;;;;;;;;;;;;;;;-144.99;100.00;52545.94;5102219;27;19924;-74
2023/10/16 00:41:58;;;;;;;;;;;;;;;-144.99;100.00;52554.09;5097293;28;20019;-73
2023/10/16 00:44:25;;;;;;;;;;;;;;;-144.99;100.00;52556.13;5106427;27;19946;-73
2023/10/16 00:46:53;;;;;;;;;;;;;;;-144.99;100.00;52570.38;5103016;27;20115;-72
2023/10/16 00:49:23;;;;;;;;;;;;;;;-144.99;100.00;52547.97;5117658;27;19966;-72
2023/10/16 00:51:50;;;;;;;;;;;;;;;-144.99;100.00;52519.44;5116567;27;19984;-72
2023/10/16 00:54:26;;;;;;;;;;;;;;;-144.99;100.00;52525.56;5114042;27;20512;-73
2023/10/16 00:56:54;;;;;;;;;;;;;;;-144.99;100.00;52533.69;5113661;27;19924;-74
2023/10/16 00:59:23;;;;;;;;;;;;;;;-144.99;100.00;52539.81;5114433;27;19932;-70
2023/10/16 01:01:52;;;;;;;;;;;;;;;-144.99;100.00;52539.81;5108091;27;20022;-74
2023/10/16 01:04:20;;;;;;;;;;;;;;;-144.99;100.00;52545.94;5100176;28;20010;-73
2023/10/16 01:06:47;;;;;;;;;;;;;;;-144.99;100.00;52578.53;5103249;27;19932;-73
2023/10/16 01:09:22;;;;;;;;;;;;;;;-144.99;100.00;52537.78;5107432;27;19928;-73
2023/10/16 01:11:48;;;;;;;;;;;;;;;-144.99;100.00;52541.84;5096222;28;19950;-71
2023/10/16 01:14:15;;;;;;;;;;;;;;;-144.99;100.00;52547.97;5109114;28;19970;-73
2023/10/16 01:16:43;;;;;;;;;;;;;;;-144.99;100.00;52566.31;5101547;28;20294;-72
2023/10/16 01:19:10;;;;;;;;;;;;;;;-144.99;100.00;52523.50;5091016;28;19930;-72
2023/10/16 01:21:37;;;;;;;;;;;;;;;-144.99;100.00;52578.53;5110104;28;19989;-68
2023/10/16 01:24:12;;;;;;;;;;;;;;;-144.99;100.00;52525.56;5101948;28;19928;-70
2023/10/16 01:26:38;;;;;;;;;;;;;;;-144.99;100.00;52562.25;5105000;28;19966;-70
2023/10/16 01:29:07;;;;;;;;;;;;;;;-144.99;100.00;52566.31;5107799;28;19928;-68
2023/10/16 01:31:35;;;;;;;;;;;;;;;-144.99;100.00;52570.38;5111206;28;19927;-71
2023/10/16 01:34:03;;;;;;;;;;;;;;;-144.99;100.00;52513.31;5091171;28;19970;-70
2023/10/16 01:36:30;;;;;;;;;;;;;;;-144.99;100.00;52525.56;5102337;28;19958;-70
2023/10/16 01:38:59;;;;;;;;;;;;;;;-144.99;100.00;52582.63;5105987;28;19981;-70
2023/10/16 01:41:25;;;;;;;;;;;;;;;-144.99;100.00;52521.47;5100085;28;19931;-71
2023/10/16 01:43:52;;;;;;;;;;;;;;;-144.99;100.00;52525.56;5104057;28;20029;-71
2023/10/16 01:46:19;;;;;;;;;;;;;;;-144.99;100.00;52541.84;5109567;28;19970;-69
2023/10/16 01:48:48;;;;;;;;;;;;;;;-144.99;100.00;52525.56;5094432;28;19931;-71
2023/10/16 01:51:19;;;;;;;;;;;;;;;-144.99;100.00;52558.16;5107738;28;19923;-71
2023/10/16 01:53:47;;;;;;;;;;;;;;;-144.99;100.00;52562.25;5101869;28;19924;-72
2023/10/16 01:56:14;;;;;;;;;;;;;;;-144.99;100.00;52574.47;5109393;28;19924;-72
2023/10/16 01:58:42;;;;;;;;;;;;;;;-144.99;100.00;52523.50;5114100;28;19932;-70
2023/10/16 02:01:09;;;;;;;;;;;;;;;-144.99;100.00;52570.38;5103939;28;20268;-71
2023/10/16 02:03:36;;;;;;;;;;;;;;;-144.99;100.00;52558.16;5100804;28;20227;-71
2023/10/16 02:06:02;;;;;;;;;;;;;;;-144.99;100.00;52570.38;5107089;28;20046;-71
2023/10/16 02:08:29;;;;;;;;;;;;;;;-144.99;100.00;52537.78;5110557;28;19923;-73
2023/10/16 02:10:55;;;;;;;;;;;;;;;-144.99;100.00;52537.78;5106350;28;20450;-71
2023/10/16 02:13:21;;;;;;;;;;;;;;;-144.99;100.00;52533.69;5099346;27;19980;-70
2023/10/16 02:15:49;;;;;;;;;;;;;;;-144.99;100.00;52529.63;5099793;28;20341;-78
2023/10/16 02:18:23;;;;;;;;;;;;;;;-144.99;100.00;52513.31;5106927;27;20390;-72
2023/10/16 02:20:50;;;;;;;;;;;;;;;-144.99;100.00;52580.59;5111297;27;20860;-72
2023/10/16 02:23:18;;;;;;;;;;;;;;;-144.99;100.00;52554.09;5113161;27;20023;-72
2023/10/16 02:25:45;;;;;;;;;;;;;;;-144.99;100.00;52560.19;5107538;27;20413;-73
2023/10/16 02:28:13;;;;;;;;;;;;;;;-144.99;100.00;52550.00;5102795;27;19969;-71
2023/10/16 02:30:41;;;;;;;;;;;;;;;-144.99;100.00;52517.41;5110977;27;19924;-72
2023/10/16 02:33:18;;;;;;;;;;;;;;;-144.99;100.00;52525.56;5104147;27;19934;-72
2023/10/16 02:35:48;;;;;;;;;;;;;;;-144.99;100.00;52537.78;5113393;27;20416;-72
2023/10/16 02:38:23;;;;;;;;;;;;;;;-144.99;100.00;52570.38;5101356;28;20371;-73
2023/10/16 02:40:52;;;;;;;;;;;;;;;-144.99;100.00;52494.97;5113987;27;20008;-71
2023/10/16 02:43:20;;;;;;;;;;;;;;;-144.99;100.00;52556.13;5116249;27;20101;-72
2023/10/16 02:45:51;;;;;;;;;;;;;;;-144.99;100.00;52568.34;5116608;27;20295;-72
2023/10/16 02:48:19;;;;;;;;;;;;;;;-144.99;100.00;52564.28;5103373;27;19930;-71
2023/10/16 02:50:49;;;;;;;;;;;;;;;-144.99;100.00;52560.19;5119126;27;20022;-71
2023/10/16 02:53:17;;;;;;;;;;;;;;;-144.99;100.00;52521.47;5111127;27;19927;-72
2023/10/16 02:55:44;;;;;;;;;;;;;;;-144.99;100.00;52531.66;5109212;27;20406;-71
2023/10/16 02:58:11;;;;;;;;;;;;;;;-144.99;100.00;52582.63;5105250;27;19992;-70
2023/10/16 03:00:43;;;;;;;;;;;;;;;-144.99;100.00;52576.50;5113399;27;20006;-72
2023/10/16 03:03:10;;;;;;;;;;;;;;;-144.99;100.00;52545.94;5114520;27;19928;-71
2023/10/16 03:05:37;;;;;;;;;;;;;;;-144.99;100.00;52550.00;5117470;27;19923;-70
2023/10/16 03:08:05;;;;;;;;;;;;;;;-144.99;100.00;52521.47;5104475;28;19924;-72
2023/10/16 03:10:36;;;;;;;;;;;;;;;-144.99;100.00;52543.91;5100323;28;19950;-70
2023/10/16 03:13:05;;;;;;;;;;;;;;;-144.99;100.00;52509.25;5095418;27;19923;-74
2023/10/16 03:15:33;;;;;;;;;;;;;;;-144.99;100.00;52558.16;5114458;27;19924;-72
2023/10/16 03:18:00;;;;;;;;;;;;;;;-144.99;100.00;52533.69;5107132;27;19973;-73
2023/10/16 03:20:35;;;;;;;;;;;;;;;-144.99;100.00;52574.47;5095939;28;20418;-72
2023/10/16 03:23:06;;;;;;;;;;;;;;;-144.99;100.00;52558.16;5113387;27;19934;-70
2023/10/16 03:25:50;;;;;;;;;;;;;;;-144.99;100.00;52543.91;5116256;27;19935;-69
2023/10/16 03:28:18;;;;;;;;;;;;;;;-144.99;100.00;52545.94;5101389;27;20125;-71
2023/10/16 03:30:44;;;;;;;;;;;;;;;-144.99;100.00;52574.47;5106357;27;20015;-70
2023/10/16 03:33:14;;;;;;;;;;;;;;;-144.99;100.00;52525.56;5100194;27;20014;-69
2023/10/16 03:35:43;;;;;;;;;;;;;;;-144.99;100.00;52550.00;5110690;27;20347;-69
2023/10/16 03:38:11;;;;;;;;;;;;;;;-144.99;100.00;52568.34;5113995;27;19931;-69
2023/10/16 03:40:38;;;;;;;;;;;;;;;-144.99;100.00;52529.63;5104188;27;19924;-71
2023/10/16 03:43:04;;;;;;;;;;;;;;;-144.99;100.00;52566.31;5105037;27;20092;-72
2023/10/16 03:45:31;;;;;;;;;;;;;;;-144.99;100.00;52566.31;5115083;27;20030;-69
2023/10/16 03:48:00;;;;;;;;;;;;;;;-144.99;100.00;52541.84;5111589;27;19932;-71
2023/10/16 03:50:34;;;;;;;;;;;;;;;-144.99;100.00;52560.19;5110399;27;19928;-70
2023/10/16 03:53:01;;;;;;;;;;;;;;;-144.99;100.00;52550.00;5113623;27;19957;-71
2023/10/16 03:55:31;;;;;;;;;;;;;;;-144.99;100.00;52545.94;5107870;27;19923;-69
2023/10/16 03:57:58;;;;;;;;;;;;;;;-144.99;100.00;52547.97;5116892;27;19927;-71
2023/10/16 04:00:41;;;;;;;;;;;;;;;-144.99;100.00;52545.94;5114763;27;20010;-71
2023/10/16 04:03:09;;;;;;;;;;;;;;;-144.99;100.00;52529.63;5106206;27;19924;-71
2023/10/16 04:05:45;;;;;;;;;;;;;;;-144.99;100.00;52517.41;5109682;27;19932;-71
2023/10/16 04:08:13;;;;;;;;;;;;;;;-144.99;100.00;52556.13;5102402;27;19924;-71
2023/10/16 04:10:46;;;;;;;;;;;;;;;-144.99;100.00;52564.28;5107162;27;19924;-70
2023/10/16 04:13:12;;;;;;;;;;;;;;;-144.99;100.00;52554.09;5104706;27;20400;-71
2023/10/16 04:15:59;;;;;;;;;;;;;;;-144.99;100.00;52562.25;5102475;22;19981;-64
2023/10/16 04:18:28;;;;;;;;;;;;;;;-144.99;100.00;52545.94;5110144;28;19987;-66
2023/10/16 04:21:09;;;;;;;;;;;;;;;-144.99;100.00;52541.84;5102031;28;19932;-73
2023/10/16 04:23:37;;;;;;;;;;;;;;;-144.99;100.00;52560.19;5108109;28;19976;-73
2023/10/16 04:31:44;;;;;;;;;;;;;;;-144.99;100.00;52545.94;5091975;28;20359;-65
2023/10/16 04:34:24;;;;;;;;;;;;;;;-144.99;100.00;52558.16;5078511;28;19924;-64
2023/10/16 04:36:53;;;;;;;;;;;;;;;-144.99;100.00;52511.28;5091281;28;19928;-65
2023/10/16 04:47:28;;;;;;;;;;;;;;;-144.99;100.00;52554.09;5101432;28;19924;-65
2023/10/16 04:49:59;;;;;;;;;;;;;;;-144.99;100.00;52527.59;5108945;28;19924;-70
2023/10/16 04:53:06;;;;;;;;;;;;;;;-144.99;100.00;52578.53;5102005;28;19923;-65
2023/10/16 04:58:27;;;;;;;;;;;;;;;-144.99;100.00;52501.09;5093883;28;19930;-67
2023/10/16 05:00:57;;;;;;;;;;;;;;;-144.99;100.00;52537.78;5099666;28;19924;-67
2023/10/16 05:03:23;;;;;;;;;;;;;;;-144.99;100.00;52566.31;5096733;28;20392;-67
2023/10/16 05:06:04;;;;;;;;;;;;;;;-144.99;100.00;52554.09;5087844;28;20201;-67
2023/10/16 05:08:59;;;;;;;;;;;;;;;-144.99;100.00;52521.47;5110291;28;19932;-72
2023/10/16 05:11:27;;;;;;;;;;;;;;;-144.99;100.00;52543.91;4393845;28;10000744;-72
2023/10/16 05:14:19;;;;;;;;;;;;;;;-144.99;100.00;52554.09;5104321;28;19912;-72
2023/10/16 05:16:49;;;;;;;;;;;;;;;-144.99;100.00;52515.34;5109459;28;19911;-71
2023/10/16 05:19:29;;;;;;;;;;;;;;;-144.99;100.00;52556.13;5093274;28;19954;-72
2023/10/16 05:22:04;;;;;;;;;;;;;;;-144.99;100.00;52574.47;5101608;28;19933;-72
2023/10/16 06:16:35;;;;;;;;;;;;;;;-144.99;100.00;52523.50;5097299;28;19931;-71
2023/10/16 06:19:07;;;;;;;;;;;;;;;-144.99;100.00;52533.69;5084042;28;20610;-72
2023/10/16 06:21:34;;;;;;;;;;;;;;;-144.99;100.00;52523.50;5086148;28;20024;-71
2023/10/16 06:24:00;;;;;;;;;;;;;;;-144.99;100.00;52519.44;5099233;28;20395;-72
2023/10/16 06:26:28;;;;;;;;;;;;;;;-144.99;100.00;52509.25;5091330;28;19932;-72
2023/10/16 06:28:54;;;;;;;;;;;;;;;-144.99;100.00;52543.91;5090422;28;19924;-72
2023/10/16 06:31:23;;;;;;;;;;;;;;;-144.99;100.00;52517.41;5084401;28;19935;-73
2023/10/16 06:33:57;;;;;;;;;;;;;;;-144.99;100.00;52525.56;5081899;28;20090;-72
2023/10/16 06:36:25;;;;;;;;;;;;;;;-144.99;100.00;52517.41;5090359;28;20418;-71
2023/10/16 06:38:53;;;;;;;;;;;;;;;-144.99;100.00;52509.25;5081635;28;19935;-72
2023/10/16 06:41:20;;;;;;;;;;;;;;;-144.99;100.00;52525.56;5076071;28;19932;-73
2023/10/16 06:43:49;;;;;;;;;;;;;;;-144.99;100.00;52525.56;5086259;28;20079;-73
2023/10/16 06:46:22;;;;;;;;;;;;;;;-144.99;100.00;52521.47;5103551;28;19956;-72
2023/10/16 06:48:49;;;;;;;;;;;;;;;-144.99;100.00;52525.56;5094732;28;19932;-72
2023/10/16 06:51:16;;;;;;;;;;;;;;;-144.99;100.00;52545.94;5090193;28;20054;-72
2023/10/16 06:53:45;;;;;;;;;;;;;;;-144.99;100.00;52513.31;5080999;28;19935;-73
2023/10/16 06:56:27;;;;;;;;;;;;;;;-144.99;100.00;52517.41;5076099;28;20337;-73
2023/10/16 06:58:54;;;;;;;;;;;;;;;-144.99;100.00;52499.06;5071662;28;19951;-73
2023/10/16 07:01:21;;;;;;;;;;;;;;;-144.99;100.00;52545.94;5086873;28;19939;-73
2023/10/16 07:03:48;;;;;;;;;;;;;;;-144.99;100.00;52517.41;5082587;28;19959;-71
2023/10/16 07:06:14;;;;;;;;;;;;;;;-144.99;100.00;52521.47;5084557;28;19967;-72
2023/10/16 07:08:41;;;;;;;;;;;;;;;-144.99;100.00;52543.91;5093574;28;19939;-72
2023/10/16 07:11:13;;;;;;;;;;;;;;;-144.99;100.00;52525.56;4740803;28;9999676;-72
2023/10/16 07:13:40;;;;;;;;;;;;;;;-144.99;100.00;52515.34;5080469;28;19934;-72
2023/10/16 07:16:07;;;;;;;;;;;;;;;-144.99;100.00;52515.34;5080402;28;19924;-72
2023/10/16 07:18:35;;;;;;;;;;;;;;;-144.99;100.00;52566.31;5086120;28;19970;-72
2023/10/16 07:21:08;;;;;;;;;;;;;;;-144.99;100.00;52509.25;5078544;28;20006;-71
2023/10/16 07:23:35;;;;;;;;;;;;;;;-144.99;100.00;52533.69;5088241;28;19967;-73
2023/10/16 07:26:02;;;;;;;;;;;;;;;-144.99;100.00;52521.47;5088465;28;19970;-72
2023/10/16 07:28:30;;;;;;;;;;;;;;;-144.99;100.00;52509.25;5110575;28;19923;-71
2023/10/16 07:30:58;;;;;;;;;;;;;;;-144.99;100.00;52525.56;5076621;28;19934;-73
2023/10/16 07:33:24;;;;;;;;;;;;;;;-144.99;100.00;52529.63;5090398;28;19928;-73
2023/10/16 07:35:52;;;;;;;;;;;;;;;-144.99;100.00;52472.56;5092074;28;19927;-73
2023/10/16 07:38:20;;;;;;;;;;;;;;;-144.99;100.00;52480.72;5081454;28;20585;-73
2023/10/16 07:40:51;;;;;;;;;;;;;;;-144.99;100.00;52484.78;5088681;28;19931;-72
2023/10/16 07:43:17;;;;;;;;;;;;;;;-144.99;100.00;52519.44;5085374;28;19928;-71
2023/10/16 07:45:46;;;;;;;;;;;;;;;-144.99;100.00;52525.56;5089988;28;19981;-73
2023/10/16 07:48:20;;;;;;;;;;;;;;;-144.99;100.00;52509.25;5076995;28;19963;-71
2023/10/16 07:50:48;;;;;;;;;;;;;;;-144.99;100.00;52484.78;5086731;28;20270;-74
2023/10/16 07:53:17;;;;;;;;;;;;;;;-144.99;100.00;52494.97;5093939;28;19935;-74
2023/10/16 07:55:50;;;;;;;;;;;;;;;-144.99;100.00;52554.09;5088447;28;19967;-74
2023/10/16 07:58:17;;;;;;;;;;;;;;;-144.99;100.00;52509.25;5078209;28;20511;-74
2023/10/16 08:00:58;;;;;;;;;;;;;;;-144.99;100.00;52513.31;5080065;28;19932;-75
2023/10/16 08:03:27;;;;;;;;;;;;;;;-144.99;100.00;52484.78;5069340;28;20007;-74
2023/10/16 08:05:54;;;;;;;;;;;;;;;-144.99;100.00;52486.81;5089978;28;19936;-72
2023/10/16 08:08:35;;;;;;;;;;;;;;;-144.99;100.00;52492.94;5097876;28;19925;-73
2023/10/16 08:11:12;;;;;;;;;;;;;;;-144.99;100.00;52509.25;5091352;28;19931;-73
2023/10/16 08:13:46;;;;;;;;;;;;;;;-144.99;100.00;52476.63;5083201;28;19968;-74
2023/10/16 08:16:12;;;;;;;;;;;;;;;-144.99;100.00;52533.69;5076994;28;20019;-74
2023/10/16 08:18:41;;;;;;;;;;;;;;;-144.99;100.00;52486.81;5070919;28;19928;-73
2023/10/16 08:21:08;;;;;;;;;;;;;;;-144.99;100.00;52488.84;5084941;28;19932;-74
2023/10/16 08:23:38;;;;;;;;;;;;;;;-144.99;100.00;52517.41;5082044;28;20862;-73
2023/10/16 08:26:14;;;;;;;;;;;;;;;-144.99;100.00;52476.63;5083347;28;20387;-73
2023/10/16 08:28:45;;;;;;;;;;;;;;;-144.99;100.00;52470.50;5093209;28;20360;-73
2023/10/16 08:31:22;;;;;;;;;;;;;;;-144.99;100.00;52480.72;5087930;28;19928;-73
2023/10/16 08:33:51;;;;;;;;;;;;;;;-144.99;100.00;52488.84;5080861;28;19975;-74
2023/10/16 08:36:19;;;;;;;;;;;;;;;-144.99;100.00;52476.63;5086636;28;19924;-73
2023/10/16 08:38:52;;;;;;;;;;;;;;;-144.99;100.00;52456.25;5087877;28;19989;-73
2023/10/16 08:41:22;;;;;;;;;;;;;;;-144.99;100.00;52480.72;5080985;28;19935;-73
2023/10/16 08:44:03;;;;;;;;;;;;;;;-144.99;100.00;52452.16;5089566;28;19986;-74
2023/10/16 08:46:44;;;;;;;;;;;;;;;-144.99;100.00;52543.91;5083892;28;20032;-74
2023/10/16 08:49:12;;;;;;;;;;;;;;;-144.99;100.00;52476.63;5076795;28;19951;-74
2023/10/16 08:51:39;;;;;;;;;;;;;;;-144.99;100.00;52444.03;5101136;28;19928;-73
2023/10/16 08:54:35;;;;;;;;;;;;;;;-144.99;100.00;52464.41;5081566;28;19946;-75
2023/10/16 08:56:54;;;;;;;;;;;;;;;-144.99;100.00;52460.31;5073193;28;19947;-76
2023/10/16 08:59:22;;;;;;;;;;;;;;;-144.99;100.00;52464.41;5083821;28;19935;-75
2023/10/16 09:01:49;;;;;;;;;;;;;;;-144.99;100.00;52497.00;5082340;28;20315;-74
2023/10/16 09:04:18;;;;;;;;;;;;;;;-144.99;100.00;52464.41;5085527;28;19985;-74
2023/10/16 09:06:44;;;;;;;;;;;;;;;-144.99;100.00;52448.09;5082207;28;19935;-73
2023/10/16 09:09:16;;;;;;;;;;;;;;;-144.99;100.00;52460.31;5076019;28;19928;-74
2023/10/16 09:11:45;;;;;;;;;;;;;;;-144.99;99.62;52454.22;5095352;28;19938;-74
2023/10/16 09:14:13;;;;;;;;;;;;;;;-144.99;96.77;52460.31;5081432;28;19950;-74
2023/10/16 09:16:43;;;;;;;;;;;;;;;-144.99;95.92;52384.91;5075243;28;19932;-76
2023/10/16 09:19:12;;;;;;;;;;;;;;;-144.99;94.53;52427.72;5083606;28;19931;-74
2023/10/16 09:21:43;;;;;;;;;;;;;;;-144.99;91.89;52452.16;5074923;28;19929;-74
2023/10/16 09:24:12;;;;;;;;;;;;;;;-144.99;89.75;52431.78;5085223;28;20392;-74
2023/10/16 09:26:44;;;;;;;;;;;;;;;-144.99;89.58;52444.03;5080376;28;19932;-74
2023/10/16 09:29:14;;;;;;;;;;;;;;;-144.99;89.13;52464.41;5087219;28;20026;-75
2023/10/16 09:31:43;;;;;;;;;;;;;;;-144.99;87.60;52460.31;5091027;28;19931;-73
2023/10/16 09:34:10;;;;;;;;;;;;;;;-144.99;87.16;52439.94;5095819;28;19931;-74
2023/10/16 09:36:37;;;;;;;;;;;;;;;-144.99;85.79;52470.50;5085363;28;19924;-75
2023/10/16 09:39:16;;;;;;;;;;;;;;;-144.99;85.70;52460.31;5079015;28;19929;-76
2023/10/16 09:41:43;;;;;;;;;;;;;;;-144.99;86.01;52448.09;5079390;28;20334;-75
2023/10/16 09:44:22;;;;;;;;;;;;;;;-144.99;82.27;52419.56;5092072;28;19930;-74
2023/10/16 09:46:54;;;;;;;;;;;;;;;-144.99;82.37;52427.72;5092585;28;20380;-75
2023/10/16 09:49:24;;;;;;;;;;;;;;;-144.99;82.75;52488.84;5077842;28;19924;-75
2023/10/16 09:51:57;;;;;;;;;;;;;;;-144.99;83.82;52448.09;5077362;28;19971;-75
2023/10/16 09:54:26;;;;;;;;;;;;;;;-144.99;84.28;52464.41;5086963;28;19935;-74
2023/10/16 09:56:58;;;;;;;;;;;;;;;-144.99;85.17;52488.84;5093498;28;19980;-74
2023/10/16 09:59:31;;;;;;;;;;;;;;;-144.99;83.88;52468.47;5080811;28;19932;-75
2023/10/16 10:02:05;;;;;;;;;;;;;;;-144.99;84.45;52484.78;5089575;28;19928;-75
2023/10/16 10:04:35;;;;;;;;;;;;;;;-144.99;84.79;52488.84;5074697;28;19928;-75
2023/10/16 10:07:03;;;;;;;;;;;;;;;-144.99;85.08;52497.00;5078555;28;20256;-74
2023/10/16 10:09:41;;;;;;;;;;;;;;;-144.99;85.18;52466.44;5077616;28;19943;-75
2023/10/16 10:12:13;;;;;;;;;;;;;;;-144.99;85.23;52490.91;5094987;28;19928;-75
2023/10/16 10:14:48;;;;;;;;;;;;;;;-144.99;84.63;52484.78;5094003;28;19916;-75
2023/10/16 10:17:19;;;;;;;;;;;;;;;-144.99;84.74;52464.41;5091949;28;19987;-75
2023/10/16 10:19:54;;;;;;;;;;;;;;;-144.99;84.15;52427.72;5081830;28;20353;-75
2023/10/16 10:22:26;;;;;;;;;;;;;;;-144.99;83.94;52468.47;5074466;28;19924;-75
2023/10/16 10:25:09;;;;;;;;;;;;;;;-144.99;81.75;52484.78;5069612;28;19928;-75
2023/10/16 10:27:39;;;;;;;;;;;;;;;-144.99;82.71;52517.41;5085225;28;20273;-75
2023/10/16 10:30:06;;;;;;;;;;;;;;;-144.99;82.76;52492.94;5079255;28;19946;-74
2023/10/16 10:32:33;;;;;;;;;;;;;;;-144.99;82.44;52468.47;5079607;28;19929;-75
2023/10/16 10:35:14;;;;;;;;;;;;;;;-144.99;79.10;52399.19;5071495;28;20655;-76
2023/10/16 10:37:45;;;;;;;;;;;;;;;-144.99;75.16;52313.56;5085779;28;20369;-73
2023/10/16 10:40:21;;;;;;;;;;;;;;;-144.99;67.72;52325.81;5090938;28;20044;-74
2023/10/16 10:42:53;;;;;;;;;;;;;;;-144.99;66.31;52346.19;5098676;28;19931;-74
2023/10/16 10:45:33;;;;;;;;;;;;;;;-144.99;66.18;52386.94;5084104;28;20400;-74
2023/10/16 10:48:04;;;;;;;;;;;;;;;-144.99;66.34;52305.41;5100151;28;19933;-75
2023/10/16 10:50:30;;;;;;;;;;;;;;;-144.99;64.22;52260.56;5075950;28;20024;-74
2023/10/16 10:52:57;;;;;;;;;;;;;;;-144.99;63.20;52321.72;5089289;28;20189;-76
2023/10/16 10:55:26;;;;;;;;;;;;;;;-144.99;62.17;52317.66;5103973;28;19944;-75
2023/10/16 10:57:58;;;;;;;;;;;;;;;-144.99;62.56;52354.34;5103931;28;19935;-75
2023/10/16 11:00:43;;;;;;;;;;;;;;;-144.99;63.75;52413.44;5071029;28;19929;-76
2023/10/16 11:03:22;;;;;;;;;;;;;;;-144.99;65.21;52454.22;5078248;28;20020;-75
2023/10/16 11:05:49;;;;;;;;;;;;;;;-144.99;66.56;52452.16;5091550;28;20351;-75
2023/10/16 11:08:22;;;;;;;;;;;;;;;-144.99;67.86;52513.31;5086867;28;19950;-75
2023/10/16 11:10:51;;;;;;;;;;;;;;;-144.99;69.02;52488.84;5082087;28;20411;-76
2023/10/16 11:13:21;;;;;;;;;;;;;;;-144.99;69.05;52488.84;5083254;28;19931;-75
2023/10/16 11:15:52;;;;;;;;;;;;;;;-144.99;69.51;52521.47;5094083;28;19934;-76
2023/10/16 11:18:19;;;;;;;;;;;;;;;-144.99;70.40;52492.94;5073296;28;19928;-77
2023/10/16 11:20:47;;;;;;;;;;;;;;;-144.99;71.09;52517.41;5083587;28;20401;-76
2023/10/16 11:23:14;;;;;;;;;;;;;;;-144.99;71.70;52517.41;5075885;28;19932;-76
2023/10/16 11:25:44;;;;;;;;;;;;;;;-144.99;71.84;52480.72;5083662;28;20423;-76
2023/10/16 11:28:17;;;;;;;;;;;;;;;-144.99;72.39;52378.78;5085098;28;20240;-76
2023/10/16 11:30:45;;;;;;;;;;;;;;;-144.99;68.96;52313.56;5088880;28;20002;-77
2023/10/16 11:33:12;;;;;;;;;;;;;;;-144.99;65.21;52256.50;5088913;28;20042;-76
2023/10/16 11:35:42;;;;;;;;;;;;;;;-144.99;62.15;52232.03;5073475;28;19940;-75
2023/10/16 11:38:13;;;;;;;;;;;;;;;-144.99;59.76;52203.50;5112089;28;19927;-76
2023/10/16 11:40:42;;;;;;;;;;;;;;;-144.99;57.85;52199.44;5105820;28;19934;-76
2023/10/16 11:43:11;;;;;;;;;;;;;;;-144.99;56.98;52154.59;5078946;28;20409;-77
2023/10/16 11:45:40;;;;;;;;;;;;;;;-144.99;55.84;52134.22;5072520;28;20262;-77
2023/10/16 11:48:21;;;;;;;;;;;;;;;-144.99;53.52;52315.59;5085501;28;19928;-76
2023/10/16 11:50:51;;;;;;;;;;;;;;;-144.99;54.98;52395.09;5080938;28;19928;-76
2023/10/16 11:53:23;;;;;;;;;;;;;;;-144.99;57.66;52382.88;5093668;28;20209;-76
2023/10/16 11:55:50;;;;;;;;;;;;;;;-144.99;58.16;52278.91;5092204;28;19927;-76
2023/10/16 11:58:17;;;;;;;;;;;;;;;-144.99;58.69;52313.56;5075075;28;19928;-76
2023/10/16 12:00:53;;;;;;;;;;;;;;;-144.99;56.87;52240.19;5079080;28;19939;-75
2023/10/16 12:03:20;;;;;;;;;;;;;;;-144.99;55.46;52342.09;5084784;28;19928;-77
2023/10/16 12:05:46;;;;;;;;;;;;;;;-144.99;55.60;52207.59;5078130;28;20424;-76
2023/10/16 12:08:18;;;;;;;;;;;;;;;-144.99;54.99;52215.75;5075909;28;20374;-77
2023/10/16 12:10:47;;;;;;;;;;;;;;;-144.99;54.57;52227.97;5091178;28;19932;-77
2023/10/16 12:13:14;;;;;;;;;;;;;;;-144.99;53.94;52227.97;5076112;28;19951;-78
2023/10/16 12:15:43;;;;;;;;;;;;;;;-144.99;53.89;52301.34;5075448;28;19938;-78
2023/10/16 12:18:12;;;;;;;;;;;;;;;-144.99;55.28;52382.88;5080399;28;19935;-77
2023/10/16 12:20:39;;;;;;;;;;;;;;;-144.99;56.05;52427.72;5104705;28;20331;-77
2023/10/16 12:23:05;;;;;;;;;;;;;;;-144.99;57.67;52435.88;5098315;28;20350;-78
2023/10/16 12:25:34;;;;;;;;;;;;;;;-144.99;58.65;52431.78;5088411;28;19928;-77
2023/10/16 12:28:01;;;;;;;;;;;;;;;-144.99;58.91;52407.31;5081289;28;19924;-76
2023/10/16 12:30:28;;;;;;;;;;;;;;;-144.99;60.09;52488.84;5085191;28;20401;-79
2023/10/16 12:32:55;;;;;;;;;;;;;;;-144.99;60.95;52466.44;5089976;28;19981;-75
2023/10/16 12:35:25;;;;;;;;;;;;;;;-144.99;61.86;52488.84;5086176;28;19932;-77
2023/10/16 12:37:55;;;;;;;;;;;;;;;-144.99;62.29;52480.72;5081489;28;19951;-77
2023/10/16 12:40:27;;;;;;;;;;;;;;;-144.99;62.02;52468.47;5085177;28;20467;-77
2023/10/16 12:42:53;;;;;;;;;;;;;;;-144.99;62.78;52521.47;5083515;28;19928;-76
2023/10/16 12:45:22;;;;;;;;;;;;;;;-144.99;63.55;52497.00;5080895;28;19931;-77
2023/10/16 12:47:51;;;;;;;;;;;;;;;-144.99;63.95;52511.28;5083587;28;19963;-76
2023/10/16 12:50:17;;;;;;;;;;;;;;;-144.99;64.40;52519.44;5072514;28;19924;-76
2023/10/16 12:52:45;;;;;;;;;;;;;;;-144.99;64.10;52517.41;5091220;28;20422;-76
2023/10/16 12:55:12;;;;;;;;;;;;;;;-144.99;64.32;52454.22;5076186;28;20250;-76
2023/10/16 12:57:39;;;;;;;;;;;;;;;-144.99;63.98;52494.97;5093162;28;19932;-77
2023/10/16 13:00:15;;;;;;;;;;;;;;;-144.99;63.06;52427.72;5102840;28;20031;-75
2023/10/16 13:02:42;;;;;;;;;;;;;;;-144.99;63.17;52380.84;5104648;28;19918;-78
2023/10/16 13:05:13;;;;;;;;;;;;;;;-144.99;61.04;52313.56;5105588;28;19924;-76
2023/10/16 13:07:41;;;;;;;;;;;;;;;-144.99;59.38;52285.03;5081015;28;19932;-76
2023/10/16 13:10:10;;;;;;;;;;;;;;;-144.99;57.80;52358.41;5086023;28;19969;-76
2023/10/16 13:12:39;;;;;;;;;;;;;;;-144.99;57.04;52344.16;5076791;28;20019;-76
2023/10/16 13:15:08;;;;;;;;;;;;;;;-144.99;56.61;52378.78;5084938;28;19928;-78
2023/10/16 13:17:35;;;;;;;;;;;;;;;-144.99;56.70;52354.34;5088088;28;19935;-76
2023/10/16 13:20:04;;;;;;;;;;;;;;;-144.99;56.67;52287.06;5080536;28;19970;-79
2023/10/16 13:22:31;;;;;;;;;;;;;;;-144.99;56.25;52285.03;5096184;28;19931;-78
2023/10/16 13:24:57;;;;;;;;;;;;;;;-144.99;55.70;52297.25;5099792;28;19932;-75
2023/10/16 13:27:25;;;;;;;;;;;;;;;-144.99;55.45;52378.78;5091107;28;20244;-78
2023/10/16 13:29:53;;;;;;;;;;;;;;;-144.99;55.92;52423.63;5089606;28;20321;-77
2023/10/16 13:32:20;;;;;;;;;;;;;;;-144.99;56.60;52376.75;5083215;28;20249;-79
2023/10/16 13:34:47;;;;;;;;;;;;;;;-144.99;57.91;52378.78;5088892;28;20152;-77
2023/10/16 13:37:13;;;;;;;;;;;;;;;-144.99;58.43;52439.94;5090007;28;19924;-77
2023/10/16 13:39:40;;;;;;;;;;;;;;;-144.99;58.49;52374.72;5088981;28;19924;-78
2023/10/16 13:42:08;;;;;;;;;;;;;;;-144.99;58.43;52374.72;5083281;28;19912;-79
2023/10/16 13:44:36;;;;;;;;;;;;;;;-144.99;57.78;52366.56;5095634;28;19928;-78